Pagina principale
Immagini satellite Previsioni 10 giorniClimaMeteomar Cicloni Fulmine AeroportiFAQ Bollettino Informazioni
Tempo : Europa Africa America settentrionale America meridionale Asia Australia-Oceania Altri
Lingue Contatto

Genova, Italia

Aeroporto di Genova-Sestri

latitudine: 44-25N, longitudine: 008-51E, altezza: 2 m


METAR: LIMJ 280850Z 15005KT 120V190 CAVOK 17/01 Q1016
TAF: LIMJ 280500Z 2806/2906 VRB05KT CAVOK

Ora: 10:18 (09:18 UTC)

Osservazione

Il bollettino è stato emesso 28 minuti fa, alle 08:50 UTC
Vento 5 kt da sud/sud-est, variando fra est/sud-est e sud
Temperature 17°C
Umidità 34%
Pressione 1016 hPa
Visibilità 10 km o più
nessuna nube inferiore a 1500 m e nessun cumulonembo

Cambiare le unità

Previsione

Il bollettino è stato emesso 4 ore e 18 minuti fa, alle 05:00 UTC
Previsione valida dal 28 alle 06 UTC al 29 alle 06 UTC
Vento 5 kt da direzioni variabili
Visibilità 10 km o più
nessuna nube inferiore a 1500 m e nessun cumulonembo
Le informazioni contenute in questo sito formano oggetto di una clausola di esclusione di responsabilità
Tempo : Europa Africa America settentrionale America meridionale Asia Australia-Oceania Altri
Immagini satellite Previsioni 10 giorniClimaMeteomar Cicloni Fulmine AeroportiFAQ Lingue Contatto Bollettino Informazioni